»·PEaware :: N875ZE KAVQ-KBXK

N875ZE :: KAVQ-KBXK

FLIGHT INFORMATION

Flight Status: Arrived
Operator: Privately registered:
United States
More flights under this callsign
Pilot: Zachary E. (14750)
Aircraft: CESSNA 172 SKYHAWK
(C172)
More flights by this aircraft type
Origin: KAVQ Marana Northwest Regl
United States
Destination: KBXK Buckeye Mun
United States
More flights between these airports :: More routes between these airports
Route: W
File this flight plan on PilotEdge
Remarks:
Altitude:
(Current/Filed)
4,500ft
Speed:
(Current/Filed)
110kts
Departed: 24-Sep-20 05:05 PM
Arrived: 24-Sep-20 06:04 PM
Distance/Time
Traveled:
96nm/0:59
Distance/Time
To Go:
Arrived

Flight Plot

Page will automatically refresh every two minutes.

Flight plan parsing failed; only flown route is shown


Map Options




Map Legend


Flown Route
Filed Route
Departure Airport
Arrival Airport
Navaid (VOR, NDB)
Fix

Horizontal Profiles

Position Reports

Time Latitude Longitude Heading Altitude Ground
Speed
24-Sep-20 16:52 32.406539 -111.210592 327 2032ft 0kts
24-Sep-20 16:53 32.406539 -111.210592 327 2032ft 0kts
24-Sep-20 16:54 32.406539 -111.210592 327 2032ft 0kts
24-Sep-20 16:55 32.406539 -111.210592 327 2032ft 0kts
24-Sep-20 16:56 32.406539 -111.210592 327 2032ft 0kts
24-Sep-20 16:57 32.406539 -111.210592 327 2032ft 0kts
24-Sep-20 16:58 32.406522 -111.210916 219 2032ft 0kts
24-Sep-20 16:59 32.404673 -111.209642 244 2034ft 0kts
24-Sep-20 17:00 32.404673 -111.209642 244 2034ft 0kts
24-Sep-20 17:01 32.404673 -111.209642 244 2034ft 0kts
24-Sep-20 17:02 32.404673 -111.209642 244 2034ft 0kts
24-Sep-20 17:03 32.404659 -111.210045 231 2034ft 8kts
24-Sep-20 17:04 32.413750 -111.222041 313 2264ft 75kts
24-Sep-20 17:05 32.426706 -111.242488 305 2857ft 79kts
24-Sep-20 17:06 32.438623 -111.264857 303 3361ft 85kts
24-Sep-20 17:07 32.453456 -111.290442 303 3592ft 109kts
24-Sep-20 17:08 32.470509 -111.319863 304 3508ft 105kts
24-Sep-20 17:09 32.486841 -111.347690 308 3499ft 100kts
24-Sep-20 17:10 32.503897 -111.373896 304 3502ft 101kts
24-Sep-20 17:11 32.520762 -111.400240 306 3483ft 101kts
24-Sep-20 17:12 32.538103 -111.425865 310 3508ft 98kts
24-Sep-20 17:13 32.555007 -111.451984 308 3494ft 99kts
24-Sep-20 17:14 32.572887 -111.476888 312 3503ft 99kts
24-Sep-20 17:15 32.591809 -111.501065 316 3541ft 102kts
24-Sep-20 17:16 32.612266 -111.523438 318 3904ft 100kts
24-Sep-20 17:17 32.634765 -111.543078 324 4208ft 99kts
24-Sep-20 17:18 32.657601 -111.562263 316 4457ft 100kts
24-Sep-20 17:19 32.675004 -111.587532 305 4436ft 96kts
24-Sep-20 17:20 32.690243 -111.613415 306 4440ft 92kts
24-Sep-20 17:21 32.705230 -111.638201 304 4479ft 91kts
24-Sep-20 17:22 32.719711 -111.661418 307 4473ft 92kts
24-Sep-20 17:23 32.726636 -111.672546 305 4485ft 91kts
24-Sep-20 17:24 32.740978 -111.697256 301 4491ft 91kts
24-Sep-20 17:25 32.754923 -111.722288 304 4488ft 90kts
24-Sep-20 17:26 32.768617 -111.747437 300 4478ft 91kts
24-Sep-20 17:27 32.782499 -111.772507 306 4444ft 91kts
24-Sep-20 17:28 32.799160 -111.795281 314 4533ft 96kts
24-Sep-20 17:29 32.819063 -111.819127 315 4523ft 105kts
24-Sep-20 17:30 32.840063 -111.843675 316 4518ft 106kts
24-Sep-20 17:31 32.861256 -111.868353 315 4492ft 106kts
24-Sep-20 17:32 32.882182 -111.893112 313 4468ft 107kts
24-Sep-20 17:34 32.902545 -111.918795 314 4473ft 106kts
24-Sep-20 17:35 32.922144 -111.944918 311 4509ft 105kts
24-Sep-20 17:36 32.939487 -111.973385 304 4509ft 106kts
24-Sep-20 17:37 32.956834 -112.001675 307 4544ft 105kts
24-Sep-20 17:38 32.974042 -112.030208 306 4497ft 107kts
24-Sep-20 17:39 32.993976 -112.056338 315 4468ft 106kts
24-Sep-20 17:40 33.013518 -112.082974 310 4445ft 107kts
24-Sep-20 17:41 33.032216 -112.110363 308 4482ft 106kts
24-Sep-20 17:42 33.051626 -112.137277 312 4465ft 110kts
24-Sep-20 17:43 33.071638 -112.164041 314 4490ft 107kts
24-Sep-20 17:44 33.092082 -112.189954 314 4484ft 107kts
24-Sep-20 17:45 33.111234 -112.217315 310 4444ft 108kts
24-Sep-20 17:46 33.131079 -112.243875 312 4465ft 106kts
24-Sep-20 17:47 33.151613 -112.269587 313 4476ft 108kts
24-Sep-20 17:48 33.171271 -112.296816 305 4457ft 109kts
24-Sep-20 17:49 33.188088 -112.326980 301 4461ft 109kts
24-Sep-20 17:50 33.203444 -112.358127 304 4472ft 108kts
24-Sep-20 17:50 33.216291 -112.384196 301 4456ft 109kts
24-Sep-20 17:52 33.233493 -112.421319 296 4462ft 109kts
24-Sep-20 17:53 33.247767 -112.453422 302 4443ft 110kts
24-Sep-20 17:54 33.264238 -112.483995 304 4439ft 109kts
24-Sep-20 17:54 33.279274 -112.508394 305 4415ft 110kts
24-Sep-20 17:55 33.292683 -112.540784 292 4019ft 108kts
24-Sep-20 17:56 33.303646 -112.574248 295 2927ft 107kts
24-Sep-20 17:57 33.319356 -112.604546 301 2445ft 106kts
24-Sep-20 17:58 33.333487 -112.635510 297 2361ft 106kts
24-Sep-20 17:59 33.348869 -112.664480 307 2057ft 93kts
24-Sep-20 18:00 33.366913 -112.682812 330 1698ft 79kts
24-Sep-20 18:01 33.388025 -112.687600 358 1468ft 79kts
24-Sep-20 18:02 33.408722 -112.686834 1 1179ft 71kts
24-Sep-20 18:03 33.420878 -112.685690 90 1013ft 7kts
24-Sep-20 18:04 33.420870 -112.685371 93 1013ft 0kts
24-Sep-20 18:05 33.421180 -112.683831 8 1014ft 0kts
24-Sep-20 18:06 33.421180 -112.683831 8 1014ft 0kts
24-Sep-20 18:07 33.421180 -112.683831 8 1014ft 0kts
24-Sep-20 18:08 33.421180 -112.683831 8 1014ft 0kts
24-Sep-20 18:09 33.421180 -112.683831 8 1014ft 0kts
24-Sep-20 18:10 33.421180 -112.683831 8 1014ft 0kts
24-Sep-20 18:11 33.421180 -112.683831 8 1014ft 0kts
24-Sep-20 18:12 33.421180 -112.683831 8 1014ft 0kts
24-Sep-20 18:13 33.421180 -112.683831 8 1014ft 0kts
24-Sep-20 18:14 33.421180 -112.683831 8 1014ft 0kts
24-Sep-20 18:15 33.421180 -112.683831 8 1014ft 0kts

Navigation Log

Ident Type
Flight plan parsing failed, navigation log unavailable